createdAt,value
2023-03-07T00:01:32.136Z,4.23
2023-03-07T00:03:59.747Z,4.10
2023-03-07T00:06:26.640Z,4.27
2023-03-07T00:09:00.702Z,4.20
2023-03-07T00:11:28.836Z,3.97
2023-03-07T00:13:56.821Z,3.47
2023-03-07T00:16:32.701Z,3.90
2023-03-07T00:19:02.658Z,3.20
2023-03-07T00:21:33.982Z,3.67
2023-03-07T00:24:00.790Z,3.57
2023-03-07T00:26:39.576Z,3.07
2023-03-07T00:29:12.537Z,3.60
2023-03-07T00:31:39.358Z,3.50
2023-03-07T00:34:06.186Z,3.60
2023-03-07T00:36:32.970Z,3.20
2023-03-07T00:38:59.786Z,3.60
2023-03-07T00:41:29.166Z,3.27
2023-03-07T00:43:56.442Z,2.83
2023-03-07T00:46:25.689Z,3.90
2023-03-07T00:48:53.240Z,3.57
2023-03-07T00:51:21.870Z,3.27
2023-03-07T00:53:50.135Z,4.13
2023-03-07T00:56:20.720Z,4.00
2023-03-07T00:58:48.638Z,3.70
2023-03-07T01:01:24.971Z,3.23
2023-03-07T01:03:56.239Z,3.23
2023-03-07T01:06:27.374Z,3.33
2023-03-07T01:08:58.270Z,4.13
2023-03-07T01:11:34.128Z,3.07
2023-03-07T01:14:04.720Z,2.70
2023-03-07T01:16:36.427Z,2.77
2023-03-07T01:19:10.134Z,3.07
2023-03-07T01:21:42.417Z,2.17
2023-03-07T01:24:14.745Z,2.20
2023-03-07T01:26:42.414Z,1.93
2023-03-07T01:29:11.526Z,1.47
2023-03-07T01:31:38.424Z,1.67
2023-03-07T01:34:06.225Z,1.90
2023-03-07T01:36:38.098Z,1.33
2023-03-07T01:39:17.442Z,1.90
2023-03-07T01:41:45.910Z,1.83
2023-03-07T01:44:21.444Z,1.47
2023-03-07T01:46:54.342Z,1.57
2023-03-07T01:49:35.886Z,1.67
2023-03-07T01:52:21.952Z,1.20
2023-03-07T01:54:58.308Z,1.77
2023-03-07T01:57:39.428Z,1.50
2023-03-07T02:00:11.398Z,1.50
2023-03-07T02:02:43.089Z,1.70
2023-03-07T02:05:27.766Z,1.70
2023-03-07T02:07:57.012Z,1.53
2023-03-07T02:10:27.799Z,4.13
2023-03-07T02:12:54.935Z,1.53
2023-03-07T02:15:21.900Z,2.13
2023-03-07T02:17:49.541Z,1.40
2023-03-07T02:21:18.393Z,1.40
2023-03-07T02:24:23.710Z,1.77
2023-03-07T02:26:53.358Z,1.80
2023-03-07T02:29:21.371Z,2.00
2023-03-07T02:31:48.211Z,1.70
2023-03-07T02:34:30.224Z,1.73
2023-03-07T02:37:18.821Z,1.40
2023-03-07T02:39:48.888Z,1.90
2023-03-07T02:42:26.706Z,1.70
2023-03-07T02:45:04.975Z,1.63
2023-03-07T02:47:31.866Z,1.73
2023-03-07T02:49:58.587Z,1.60
2023-03-07T02:52:27.801Z,2.07
2023-03-07T02:54:56.109Z,1.60
2023-03-07T02:57:22.842Z,1.57
2023-03-07T02:59:52.107Z,2.00
2023-03-07T03:02:18.894Z,1.40
2023-03-07T03:04:45.804Z,2.27
2023-03-07T03:07:19.990Z,1.87
2023-03-07T03:09:46.821Z,2.00
2023-03-07T03:12:13.598Z,1.50
2023-03-07T03:14:42.375Z,1.50
2023-03-07T03:17:09.153Z,1.87
2023-03-07T03:19:36.137Z,1.57
2023-03-07T03:22:05.901Z,1.57
2023-03-07T03:24:32.665Z,1.53
2023-03-07T03:26:59.429Z,1.97
2023-03-07T03:29:26.570Z,1.50
2023-03-07T03:31:53.306Z,1.50
2023-03-07T03:34:20.364Z,1.73
2023-03-07T03:36:47.178Z,1.83
2023-03-07T03:39:16.706Z,1.80
2023-03-07T03:41:43.666Z,1.90
2023-03-07T03:44:10.641Z,2.43
2023-03-07T03:46:37.815Z,1.23
2023-03-07T03:49:04.783Z,1.90
2023-03-07T03:51:34.612Z,2.00
2023-03-07T03:54:01.353Z,1.50
2023-03-07T03:56:28.318Z,1.57
2023-03-07T03:58:57.113Z,1.90
2023-03-07T04:01:40.477Z,2.10
2023-03-07T04:04:07.323Z,1.90
2023-03-07T04:06:48.842Z,1.57
2023-03-07T04:09:15.603Z,1.80
2023-03-07T04:11:42.355Z,1.67
2023-03-07T04:14:09.113Z,2.33
2023-03-07T04:16:35.871Z,1.70
2023-03-07T04:19:02.696Z,1.60
2023-03-07T04:21:29.460Z,1.23
2023-03-07T04:23:59.396Z,1.93
2023-03-07T04:26:26.218Z,1.87
2023-03-07T04:28:53.095Z,1.90
2023-03-07T04:31:24.247Z,1.43
2023-03-07T04:33:55.203Z,1.60
2023-03-07T04:36:23.788Z,1.63
2023-03-07T04:38:51.012Z,1.67
2023-03-07T04:41:27.301Z,1.70
2023-03-07T04:43:54.218Z,1.50
2023-03-07T04:46:21.338Z,1.43
2023-03-07T04:48:48.239Z,1.57
2023-03-07T04:51:15.290Z,1.20
2023-03-07T04:53:44.366Z,1.67
2023-03-07T04:56:11.354Z,1.57
2023-03-07T04:58:38.397Z,1.87
2023-03-07T05:01:06.017Z,1.20
2023-03-07T05:03:36.505Z,1.30
2023-03-07T05:06:10.830Z,2.17
2023-03-07T05:08:37.753Z,0.70
2023-03-07T05:11:04.805Z,0.97
2023-03-07T05:13:32.236Z,1.00
2023-03-07T05:16:01.022Z,1.10
2023-03-07T05:18:29.241Z,0.77
2023-03-07T05:20:58.443Z,0.90
2023-03-07T05:23:25.520Z,0.80
2023-03-07T05:25:52.263Z,0.70
2023-03-07T05:28:19.508Z,1.20
2023-03-07T05:30:47.353Z,0.83
2023-03-07T05:33:20.249Z,0.60
2023-03-07T05:35:50.169Z,0.93
2023-03-07T05:38:17.078Z,0.67
2023-03-07T05:40:44.200Z,0.73
2023-03-07T05:43:10.967Z,0.60
2023-03-07T05:45:37.799Z,0.67
2023-03-07T05:48:04.710Z,0.70
2023-03-07T05:50:31.929Z,0.60
2023-03-07T05:52:58.784Z,0.77
2023-03-07T05:55:25.602Z,0.70
2023-03-07T05:57:52.290Z,0.53
2023-03-07T06:00:19.953Z,0.67
2023-03-07T06:02:46.777Z,0.80
2023-03-07T06:05:14.171Z,1.03
2023-03-07T06:07:40.953Z,0.90
2023-03-07T06:10:08.709Z,1.00
2023-03-07T06:12:35.469Z,1.00
2023-03-07T06:15:02.640Z,1.20
2023-03-07T06:17:29.654Z,0.90
2023-03-07T06:19:56.443Z,1.30
2023-03-07T06:22:23.238Z,1.13
2023-03-07T06:24:52.485Z,1.20
2023-03-07T06:27:26.708Z,1.50
2023-03-07T06:29:57.486Z,1.30
2023-03-07T06:32:24.350Z,1.53
2023-03-07T06:34:51.261Z,1.13
2023-03-07T06:37:21.190Z,1.40
2023-03-07T06:39:47.923Z,1.40
2023-03-07T06:42:15.556Z,1.10
2023-03-07T06:44:43.912Z,0.93
2023-03-07T06:47:10.800Z,1.13
2023-03-07T06:49:37.561Z,0.83
2023-03-07T06:52:07.408Z,0.90
2023-03-07T06:54:34.107Z,0.70
2023-03-07T06:57:00.843Z,0.80
2023-03-07T06:59:27.588Z,1.13
2023-03-07T07:01:54.370Z,1.00
2023-03-07T07:04:21.308Z,1.02
2023-03-07T07:06:48.139Z,0.97
2023-03-07T07:09:14.966Z,0.90
2023-03-07T07:11:44.857Z,1.00
2023-03-07T07:14:14.135Z,0.97
2023-03-07T07:16:40.970Z,0.70
2023-03-07T07:19:09.340Z,1.00
2023-03-07T07:21:36.742Z,1.20
2023-03-07T07:24:04.697Z,1.07
2023-03-07T07:26:34.550Z,0.90
2023-03-07T07:29:02.317Z,1.60
2023-03-07T07:31:31.512Z,1.33
2023-03-07T07:33:58.260Z,1.10
2023-03-07T07:36:32.035Z,1.20
2023-03-07T07:39:01.494Z,1.30
2023-03-07T07:41:28.200Z,1.30
2023-03-07T07:43:54.893Z,1.30
2023-03-07T07:46:21.671Z,1.50
2023-03-07T07:48:48.473Z,1.30
2023-03-07T07:51:17.809Z,1.40
2023-03-07T07:53:44.760Z,1.20
2023-03-07T07:56:14.865Z,1.43
2023-03-07T07:58:43.885Z,1.40
2023-03-07T08:01:20.691Z,1.70
2023-03-07T08:03:49.276Z,1.60
2023-03-07T08:06:22.568Z,1.73
2023-03-07T08:08:50.013Z,1.40
2023-03-07T08:11:19.207Z,1.50
2023-03-07T08:13:46.505Z,1.73
2023-03-07T08:16:22.685Z,1.47
2023-03-07T08:18:55.946Z,1.60
2023-03-07T08:21:25.185Z,1.20
2023-03-07T08:23:55.933Z,1.17
2023-03-07T08:26:23.929Z,1.40
2023-03-07T08:28:50.700Z,1.10
2023-03-07T08:31:24.541Z,1.40
2023-03-07T08:33:52.400Z,1.20
2023-03-07T08:36:19.873Z,1.40
2023-03-07T08:38:52.225Z,1.33
2023-03-07T08:41:21.906Z,1.30
2023-03-07T08:43:49.146Z,1.40
2023-03-07T08:46:16.310Z,1.30
2023-03-07T08:48:43.203Z,1.30
2023-03-07T08:51:15.751Z,1.03
2023-03-07T08:53:44.777Z,1.10
2023-03-07T08:56:15.091Z,1.47
2023-03-07T08:58:42.488Z,1.63
2023-03-07T09:01:10.119Z,1.77
2023-03-07T09:03:37.127Z,1.30
2023-03-07T09:06:05.638Z,1.60
2023-03-07T09:08:32.660Z,1.30
2023-03-07T09:11:10.914Z,1.40
2023-03-07T09:13:46.512Z,1.33
2023-03-07T09:16:18.940Z,1.47
2023-03-07T09:18:45.753Z,1.47
2023-03-07T09:21:14.962Z,1.67
2023-03-07T09:23:43.943Z,1.50
2023-03-07T09:26:11.089Z,1.40
2023-03-07T09:28:37.809Z,1.33
2023-03-07T09:31:13.685Z,1.27
2023-03-07T09:33:41.876Z,1.70
2023-03-07T09:36:11.969Z,1.53
2023-03-07T09:38:39.628Z,1.63
2023-03-07T09:41:52.237Z,1.53
2023-03-07T09:44:56.041Z,1.57
2023-03-07T09:47:56.978Z,1.30
2023-03-07T09:50:56.130Z,1.67
2023-03-07T09:53:43.421Z,1.10
2023-03-07T09:56:48.706Z,1.30
2023-03-07T09:59:41.739Z,1.13
2023-03-07T10:02:43.690Z,1.10
2023-03-07T10:05:28.525Z,1.27
2023-03-07T10:07:55.919Z,1.33
2023-03-07T10:10:57.686Z,2.07
2023-03-07T10:13:45.685Z,1.73
2023-03-07T10:16:41.353Z,1.57
2023-03-07T10:19:46.414Z,1.43
2023-03-07T10:22:31.390Z,1.23
2023-03-07T10:25:34.108Z,1.30
2023-03-07T10:28:21.722Z,0.80
2023-03-07T10:30:54.304Z,1.10
2023-03-07T10:33:21.325Z,0.77
2023-03-07T10:36:02.299Z,0.80
2023-03-07T10:38:34.982Z,0.60
2023-03-07T10:41:19.131Z,1.10
2023-03-07T10:43:47.853Z,0.93
2023-03-07T10:46:44.084Z,0.70
2023-03-07T10:49:37.472Z,1.00
2023-03-07T10:52:35.060Z,0.70
2023-03-07T10:55:32.933Z,0.93
2023-03-07T10:58:30.935Z,0.70
2023-03-07T11:01:06.701Z,0.70
2023-03-07T11:03:53.489Z,0.70
2023-03-07T11:06:51.721Z,0.87
2023-03-07T11:09:34.618Z,0.50
2023-03-07T11:12:13.356Z,0.80
2023-03-07T11:14:53.381Z,0.60
2023-03-07T11:17:47.488Z,1.17
2023-03-07T11:20:46.335Z,1.27
2023-03-07T11:23:19.758Z,1.57
2023-03-07T11:25:46.927Z,1.93
2023-03-07T11:28:35.381Z,2.20
2023-03-07T11:31:47.574Z,1.30
2023-03-07T11:34:27.682Z,1.47
2023-03-07T11:37:27.584Z,0.90
2023-03-07T11:40:28.860Z,0.90
2023-03-07T11:43:22.881Z,0.90
2023-03-07T11:46:00.500Z,0.90
2023-03-07T11:48:48.602Z,0.70
2023-03-07T11:51:55.796Z,0.90
2023-03-07T11:54:45.791Z,0.80
2023-03-07T11:57:44.272Z,0.90
2023-03-07T12:00:49.838Z,0.90
2023-03-07T12:04:03.953Z,0.70
2023-03-07T12:06:49.583Z,0.50
2023-03-07T12:10:22.771Z,0.70
2023-03-07T12:13:21.650Z,1.37
2023-03-07T12:16:27.545Z,0.67
2023-03-07T12:19:23.847Z,0.87
2023-03-07T12:22:34.311Z,1.00
2023-03-07T12:25:29.838Z,0.60
2023-03-07T12:28:21.106Z,0.70
2023-03-07T12:31:07.091Z,0.70
2023-03-07T12:33:49.015Z,0.70
2023-03-07T12:36:43.173Z,1.00
2023-03-07T12:39:21.386Z,1.00
2023-03-07T12:42:05.563Z,0.90
2023-03-07T12:44:52.906Z,0.70
2023-03-07T12:47:40.310Z,0.70
2023-03-07T12:50:52.560Z,0.70
2023-03-07T12:53:58.458Z,0.60
2023-03-07T12:56:55.844Z,0.60
2023-03-07T12:59:23.314Z,0.70
2023-03-07T13:02:10.632Z,0.60
2023-03-07T13:04:42.665Z,0.70
2023-03-07T13:07:29.784Z,0.80
2023-03-07T13:10:05.466Z,0.87
2023-03-07T13:12:36.509Z,0.70
2023-03-07T13:15:27.307Z,0.97
2023-03-07T13:17:54.003Z,1.17
2023-03-07T13:20:39.817Z,0.97
2023-03-07T13:23:32.906Z,1.40
2023-03-07T13:26:05.251Z,0.70
2023-03-07T13:28:37.455Z,0.90
2023-03-07T13:31:16.164Z,1.00
2023-03-07T13:33:43.765Z,0.80
2023-03-07T13:36:39.263Z,1.00
2023-03-07T13:39:38.516Z,0.90
2023-03-07T13:42:43.627Z,1.00
2023-03-07T13:45:39.401Z,0.90
2023-03-07T13:48:33.320Z,1.50
2023-03-07T13:51:02.576Z,1.07
2023-03-07T13:53:32.996Z,0.80
2023-03-07T13:56:20.314Z,0.83
2023-03-07T13:58:53.042Z,1.00
2023-03-07T14:01:41.369Z,0.80
2023-03-07T14:04:40.946Z,0.60
2023-03-07T14:07:39.825Z,1.20
2023-03-07T14:10:28.030Z,0.70
2023-03-07T14:13:51.681Z,0.83
2023-03-07T14:16:35.827Z,0.60
2023-03-07T14:19:49.317Z,0.70
2023-03-07T14:22:41.614Z,0.90
2023-03-07T14:26:16.300Z,0.70
2023-03-07T14:29:04.736Z,0.70
2023-03-07T14:31:39.319Z,1.20
2023-03-07T14:34:21.107Z,5.77
2023-03-07T14:37:22.581Z,41.93
2023-03-07T14:40:25.919Z,13.10
2023-03-07T14:43:49.598Z,6.00
2023-03-07T14:46:45.524Z,2.10
2023-03-07T14:49:58.036Z,1.33
2023-03-07T14:52:31.410Z,0.90
2023-03-07T14:55:05.803Z,0.87
2023-03-07T14:57:46.142Z,1.10
2023-03-07T15:00:32.503Z,1.40
2023-03-07T15:03:07.933Z,0.70
2023-03-07T15:05:51.214Z,1.07
2023-03-07T15:08:38.178Z,0.80
2023-03-07T15:11:38.305Z,0.73
2023-03-07T15:14:18.550Z,0.90
2023-03-07T15:16:54.290Z,0.70
2023-03-07T15:20:00.211Z,1.10
2023-03-07T15:22:35.709Z,0.73
2023-03-07T15:25:04.247Z,0.90
2023-03-07T15:27:32.354Z,1.57
2023-03-07T15:30:03.134Z,0.93
2023-03-07T15:32:40.703Z,1.03
2023-03-07T15:35:13.314Z,0.80
2023-03-07T15:37:56.911Z,0.73
2023-03-07T15:40:36.121Z,1.33
2023-03-07T15:43:04.413Z,0.70
2023-03-07T15:45:41.465Z,0.77
2023-03-07T15:48:32.827Z,0.80
2023-03-07T15:51:06.309Z,0.90
2023-03-07T15:53:41.898Z,1.27
2023-03-07T15:56:37.350Z,0.90
2023-03-07T15:59:24.608Z,1.20
2023-03-07T16:01:51.572Z,1.10
2023-03-07T16:04:39.620Z,1.40
2023-03-07T16:07:17.414Z,0.90
2023-03-07T16:09:44.512Z,1.10
2023-03-07T16:12:18.696Z,1.10
2023-03-07T16:14:48.512Z,1.00
2023-03-07T16:17:34.131Z,1.27
2023-03-07T16:20:00.923Z,1.27
2023-03-07T16:22:30.717Z,0.87
2023-03-07T16:24:57.917Z,0.83
2023-03-07T16:27:27.381Z,0.90
2023-03-07T16:29:54.375Z,1.30
2023-03-07T16:32:22.940Z,1.07
2023-03-07T16:34:50.610Z,1.00
2023-03-07T16:37:17.887Z,1.23
2023-03-07T16:39:44.590Z,1.20
2023-03-07T16:42:23.187Z,1.00
2023-03-07T16:44:51.827Z,1.20
2023-03-07T16:47:18.743Z,1.00
2023-03-07T16:49:48.954Z,1.10
2023-03-07T16:52:15.738Z,1.10
2023-03-07T16:54:42.910Z,1.27
2023-03-07T16:57:17.959Z,1.30
2023-03-07T16:59:47.952Z,1.20
2023-03-07T17:02:21.660Z,1.23
2023-03-07T17:04:48.456Z,0.90
2023-03-07T17:07:21.957Z,0.97
2023-03-07T17:09:49.462Z,1.20
2023-03-07T17:12:24.438Z,1.70
2023-03-07T17:14:51.774Z,0.80
2023-03-07T17:17:27.656Z,0.90
2023-03-07T17:19:54.397Z,1.07
2023-03-07T17:22:21.229Z,1.10
2023-03-07T17:24:54.426Z,1.50
2023-03-07T17:27:24.627Z,0.80
2023-03-07T17:29:54.669Z,0.90
2023-03-07T17:32:21.930Z,1.13
2023-03-07T17:34:51.042Z,1.63
2023-03-07T17:37:18.246Z,2.00
2023-03-07T17:39:45.771Z,1.90
2023-03-07T17:42:13.007Z,1.77
2023-03-07T17:44:42.925Z,1.90
2023-03-07T17:47:09.696Z,2.90
2023-03-07T17:49:41.650Z,2.43
2023-03-07T17:52:08.768Z,1.53
2023-03-07T17:54:42.586Z,1.23
2023-03-07T17:57:09.293Z,0.80
2023-03-07T17:59:43.659Z,0.80
2023-03-07T18:02:14.996Z,1.00
2023-03-07T18:04:42.511Z,1.33
2023-03-07T18:07:20.539Z,3.57
2023-03-07T18:09:49.760Z,1.30
2023-03-07T18:12:18.817Z,1.00
2023-03-07T18:14:45.562Z,0.83
2023-03-07T18:17:12.348Z,0.70
2023-03-07T18:19:48.075Z,0.70
2023-03-07T18:22:15.046Z,0.80
2023-03-07T18:24:49.315Z,1.00
2023-03-07T18:27:16.155Z,1.03
2023-03-07T18:29:42.965Z,0.90
2023-03-07T18:32:09.722Z,0.80
2023-03-07T18:34:39.565Z,0.90
2023-03-07T18:37:08.202Z,0.80
2023-03-07T18:39:36.036Z,1.10
2023-03-07T18:42:08.631Z,1.07
2023-03-07T18:44:49.121Z,0.97
2023-03-07T18:47:15.927Z,1.00
2023-03-07T18:49:43.756Z,1.40
2023-03-07T18:52:10.613Z,1.03
2023-03-07T18:54:37.681Z,1.20
2023-03-07T18:57:04.518Z,1.10
2023-03-07T18:59:31.465Z,1.10
2023-03-07T19:02:05.524Z,2.80
2023-03-07T19:04:35.349Z,1.50
2023-03-07T19:07:03.863Z,3.50
2023-03-07T19:09:34.237Z,3.37
2023-03-07T19:12:01.247Z,3.10
2023-03-07T19:14:33.414Z,3.33
2023-03-07T19:17:00.258Z,4.20
2023-03-07T19:19:27.048Z,4.47
2023-03-07T19:21:53.844Z,3.03
2023-03-07T19:24:20.648Z,2.10
2023-03-07T19:26:50.108Z,1.80
2023-03-07T19:29:16.858Z,1.60
2023-03-07T19:31:44.404Z,1.53
2023-03-07T19:34:20.060Z,1.60
2023-03-07T19:36:46.911Z,1.30
2023-03-07T19:39:20.195Z,1.30
2023-03-07T19:41:50.744Z,1.17
2023-03-07T19:44:18.165Z,1.57
2023-03-07T19:46:48.235Z,1.60
2023-03-07T19:49:18.817Z,2.13
2023-03-07T19:51:45.666Z,2.00
2023-03-07T19:54:14.984Z,4.33
2023-03-07T19:56:45.821Z,2.40
2023-03-07T19:59:13.419Z,1.70
2023-03-07T20:01:40.404Z,1.30
2023-03-07T20:04:07.714Z,2.20
2023-03-07T20:06:35.199Z,2.07
2023-03-07T20:09:02.067Z,1.90
2023-03-07T20:11:34.628Z,1.90
2023-03-07T20:14:05.086Z,6.13
2023-03-07T20:16:34.503Z,6.23
2023-03-07T20:19:05.536Z,17.17
2023-03-07T20:21:33.797Z,11.07
2023-03-07T20:24:00.732Z,9.23
2023-03-07T20:26:35.938Z,12.13
2023-03-07T20:29:06.742Z,8.83
2023-03-07T20:31:36.101Z,7.50
2023-03-07T20:34:03.461Z,6.13
2023-03-07T20:36:36.235Z,5.00
2023-03-07T20:39:14.556Z,3.40
2023-03-07T20:41:43.017Z,3.13
2023-03-07T20:44:13.841Z,2.30
2023-03-07T20:46:41.336Z,4.73
2023-03-07T20:49:12.917Z,4.07
2023-03-07T20:51:40.777Z,3.30
2023-03-07T20:54:13.086Z,7.30
2023-03-07T20:56:40.973Z,7.27
2023-03-07T20:59:11.481Z,6.40
2023-03-07T21:01:38.941Z,9.43
2023-03-07T21:04:13.292Z,7.63
2023-03-07T21:06:43.315Z,5.33
2023-03-07T21:09:16.813Z,3.50
2023-03-07T21:11:48.895Z,2.93
2023-03-07T21:14:19.251Z,4.63
2023-03-07T21:16:46.301Z,6.80
2023-03-07T21:19:14.117Z,4.90
2023-03-07T21:21:41.866Z,9.07
2023-03-07T21:24:11.820Z,7.30
2023-03-07T21:26:38.664Z,6.93
2023-03-07T21:29:07.823Z,8.10
2023-03-07T21:31:36.259Z,6.63
2023-03-07T21:34:07.828Z,5.33
2023-03-07T21:36:35.312Z,3.40
2023-03-07T21:39:05.427Z,3.90
2023-03-07T21:41:32.200Z,3.43
2023-03-07T21:44:00.432Z,3.07
2023-03-07T21:46:27.982Z,2.97
2023-03-07T21:48:54.788Z,2.80
2023-03-07T21:51:22.119Z,5.43
2023-03-07T21:53:51.947Z,3.33
2023-03-07T21:56:18.871Z,2.27
2023-03-07T21:58:50.320Z,2.03
2023-03-07T22:01:23.263Z,1.70
2023-03-07T22:03:58.988Z,1.50
2023-03-07T22:06:28.174Z,1.97
2023-03-07T22:08:55.273Z,1.70
2023-03-07T22:11:27.225Z,4.33
2023-03-07T22:13:54.004Z,3.50
2023-03-07T22:16:21.387Z,2.80
2023-03-07T22:18:55.978Z,9.03
2023-03-07T22:21:27.673Z,7.43
2023-03-07T22:24:01.015Z,5.10
2023-03-07T22:26:29.945Z,4.73
2023-03-07T22:28:57.479Z,6.30
2023-03-07T22:31:27.442Z,4.73
2023-03-07T22:33:54.383Z,6.10
2023-03-07T22:36:24.566Z,7.57
2023-03-07T22:38:56.186Z,5.17
2023-03-07T22:41:26.797Z,3.90
2023-03-07T22:43:54.041Z,3.07
2023-03-07T22:46:21.917Z,2.87
2023-03-07T22:48:56.200Z,2.77
2023-03-07T22:51:25.048Z,3.87
2023-03-07T22:53:55.101Z,2.87
2023-03-07T22:56:27.493Z,2.40
2023-03-07T22:58:55.471Z,2.00
2023-03-07T23:01:26.676Z,1.87
2023-03-07T23:03:59.312Z,1.40
2023-03-07T23:06:32.043Z,2.17
2023-03-07T23:09:00.322Z,2.07
2023-03-07T23:11:30.749Z,1.90
2023-03-07T23:13:58.178Z,1.27
2023-03-07T23:16:29.071Z,1.70
2023-03-07T23:18:59.873Z,3.13
2023-03-07T23:21:31.456Z,2.80
2023-03-07T23:23:59.744Z,1.80
2023-03-07T23:26:36.923Z,2.00
2023-03-07T23:29:08.806Z,1.90
2023-03-07T23:31:41.259Z,1.40
2023-03-07T23:34:18.631Z,1.70
2023-03-07T23:36:49.063Z,1.70
2023-03-07T23:39:26.130Z,1.37
2023-03-07T23:41:52.950Z,1.30
2023-03-07T23:44:19.731Z,1.27
2023-03-07T23:46:49.967Z,0.90
2023-03-07T23:49:16.826Z,1.10
2023-03-07T23:51:44.645Z,1.07
2023-03-07T23:54:14.686Z,1.17
2023-03-07T23:56:41.398Z,1.00
2023-03-07T23:59:08.236Z,1.03
